PMDY METAR and TAF weather

Enter ICAO airport designator
Station Type Date Time Source
PMDY METAR 2019/08/18 08:56 UTC NOAA

PMDY 180856Z AUTO 19006KT 8SM CLR 28/25 A3008 RMK AO2 SLP187 T02780250 53008


Station Type Date Time Source
PMDY Decoded METAR 2019/08/18 08:56 UTC NOAA

Station name not available
Aug 18, 2019 - 04:56 AM EDT / 2019.08.18 0856 UTC
Wind: from the S (190 degrees) at 7 MPH (6 KT):0
Visibility: 8 mile(s):0
Sky conditions: clear
Temperature: 82.0 F (27.8 C)
Dew Point: 77.0 F (25.0 C)
Relative Humidity: 84%
Pressure (altimeter): 30.08 in. Hg (1018 hPa)
Pressure tendency: 0.02 inches (0.8 hPa) higher than three hours ago
ob: PMDY 180856Z AUTO 19006KT 8SM CLR 28/25 A3008 RMK AO2 SLP187 T02780250 53008
cycle: 9

Station Type Date Time Source
PMDY TAF 2019/08/18 06:24 UTC NOAA

TAF PMDY 180523Z 1806/1906 19007KT P6SM VCSH SCT020 SCT050

Example: see airport list